sensor_id;sensor_type;location;lat;lon;timestamp;temperature;humidity
30206;DHT22;17010;51.306;3.150;2022-07-06T00:01:57;14.70;99.90
30206;DHT22;17010;51.306;3.150;2022-07-06T00:04:28;14.60;99.90
30206;DHT22;17010;51.306;3.150;2022-07-06T00:06:54;14.60;99.90
30206;DHT22;17010;51.306;3.150;2022-07-06T00:09:22;14.60;99.90
30206;DHT22;17010;51.306;3.150;2022-07-06T00:11:48;14.60;99.90
30206;DHT22;17010;51.306;3.150;2022-07-06T00:14:17;14.50;99.90
30206;DHT22;17010;51.306;3.150;2022-07-06T00:16:43;14.50;99.90
30206;DHT22;17010;51.306;3.150;2022-07-06T00:19:11;14.50;99.90
30206;DHT22;17010;51.306;3.150;2022-07-06T00:21:38;14.50;99.90
30206;DHT22;17010;51.306;3.150;2022-07-06T00:24:06;14.50;99.90
30206;DHT22;17010;51.306;3.150;2022-07-06T00:26:32;14.50;99.90
30206;DHT22;17010;51.306;3.150;2022-07-06T00:28:59;14.40;99.90
30206;DHT22;17010;51.306;3.150;2022-07-06T00:31:25;14.40;99.90
30206;DHT22;17010;51.306;3.150;2022-07-06T00:33:51;14.40;99.90
30206;DHT22;17010;51.306;3.150;2022-07-06T00:36:17;14.40;99.90
30206;DHT22;17010;51.306;3.150;2022-07-06T00:38:48;14.40;99.90
30206;DHT22;17010;51.306;3.150;2022-07-06T00:41:15;14.40;99.90
30206;DHT22;17010;51.306;3.150;2022-07-06T00:43:54;14.40;99.90
30206;DHT22;17010;51.306;3.150;2022-07-06T00:46:32;14.40;99.90
30206;DHT22;17010;51.306;3.150;2022-07-06T00:48:59;14.40;99.90
30206;DHT22;17010;51.306;3.150;2022-07-06T00:51:31;14.30;99.90
30206;DHT22;17010;51.306;3.150;2022-07-06T00:54:03;14.30;99.90
30206;DHT22;17010;51.306;3.150;2022-07-06T00:56:30;14.30;99.90
30206;DHT22;17010;51.306;3.150;2022-07-06T00:59:00;14.20;99.90
30206;DHT22;17010;51.306;3.150;2022-07-06T01:01:26;14.20;99.90
30206;DHT22;17010;51.306;3.150;2022-07-06T01:03:52;14.10;99.90
30206;DHT22;17010;51.306;3.150;2022-07-06T01:06:18;14.10;99.90
30206;DHT22;17010;51.306;3.150;2022-07-06T01:08:47;14.00;99.90
30206;DHT22;17010;51.306;3.150;2022-07-06T01:11:13;14.00;99.90
30206;DHT22;17010;51.306;3.150;2022-07-06T01:13:42;14.00;99.90
30206;DHT22;17010;51.306;3.150;2022-07-06T01:16:08;14.00;99.90
30206;DHT22;17010;51.306;3.150;2022-07-06T01:18:37;13.90;99.90
30206;DHT22;17010;51.306;3.150;2022-07-06T01:21:11;14.00;99.90
30206;DHT22;17010;51.306;3.150;2022-07-06T01:23:39;13.90;99.90
30206;DHT22;17010;51.306;3.150;2022-07-06T01:26:09;13.90;99.90
30206;DHT22;17010;51.306;3.150;2022-07-06T01:28:36;13.90;99.90
30206;DHT22;17010;51.306;3.150;2022-07-06T01:31:02;13.80;99.90
30206;DHT22;17010;51.306;3.150;2022-07-06T01:33:28;13.80;99.90
30206;DHT22;17010;51.306;3.150;2022-07-06T01:35:54;13.70;99.90
30206;DHT22;17010;51.306;3.150;2022-07-06T01:38:21;13.70;99.90
30206;DHT22;17010;51.306;3.150;2022-07-06T01:40:47;13.70;99.90
30206;DHT22;17010;51.306;3.150;2022-07-06T01:43:13;13.70;99.90
30206;DHT22;17010;51.306;3.150;2022-07-06T01:45:41;13.70;99.90
30206;DHT22;17010;51.306;3.150;2022-07-06T01:48:08;13.70;99.90
30206;DHT22;17010;51.306;3.150;2022-07-06T01:50:34;13.70;99.90
30206;DHT22;17010;51.306;3.150;2022-07-06T01:53:03;13.70;99.90
30206;DHT22;17010;51.306;3.150;2022-07-06T01:55:31;13.70;99.90
30206;DHT22;17010;51.306;3.150;2022-07-06T01:57:57;13.70;99.90
30206;DHT22;17010;51.306;3.150;2022-07-06T02:00:24;13.70;99.90
30206;DHT22;17010;51.306;3.150;2022-07-06T02:02:50;13.70;99.90
30206;DHT22;17010;51.306;3.150;2022-07-06T02:05:16;13.70;99.90
30206;DHT22;17010;51.306;3.150;2022-07-06T02:07:42;13.70;99.90
30206;DHT22;17010;51.306;3.150;2022-07-06T02:10:08;13.70;99.90
30206;DHT22;17010;51.306;3.150;2022-07-06T02:12:35;13.70;99.90
30206;DHT22;17010;51.306;3.150;2022-07-06T02:15:02;13.70;99.90
30206;DHT22;17010;51.306;3.150;2022-07-06T02:17:28;13.60;99.90
30206;DHT22;17010;51.306;3.150;2022-07-06T02:19:57;13.60;99.90
30206;DHT22;17010;51.306;3.150;2022-07-06T02:22:25;13.50;99.90
30206;DHT22;17010;51.306;3.150;2022-07-06T02:24:56;13.50;99.90
30206;DHT22;17010;51.306;3.150;2022-07-06T02:27:23;13.40;99.90
30206;DHT22;17010;51.306;3.150;2022-07-06T02:29:50;13.50;99.90
30206;DHT22;17010;51.306;3.150;2022-07-06T02:32:16;13.40;99.90
30206;DHT22;17010;51.306;3.150;2022-07-06T02:34:43;13.40;99.90
30206;DHT22;17010;51.306;3.150;2022-07-06T02:37:11;13.30;99.90
30206;DHT22;17010;51.306;3.150;2022-07-06T02:39:38;13.30;99.90
30206;DHT22;17010;51.306;3.150;2022-07-06T02:42:09;13.30;99.90
30206;DHT22;17010;51.306;3.150;2022-07-06T02:44:36;13.20;99.90
30206;DHT22;17010;51.306;3.150;2022-07-06T02:47:03;13.20;99.90
30206;DHT22;17010;51.306;3.150;2022-07-06T02:49:29;13.20;99.90
30206;DHT22;17010;51.306;3.150;2022-07-06T02:51:57;13.20;99.90
30206;DHT22;17010;51.306;3.150;2022-07-06T02:54:24;13.10;99.90
30206;DHT22;17010;51.306;3.150;2022-07-06T02:56:50;13.10;99.90
30206;DHT22;17010;51.306;3.150;2022-07-06T02:59:19;13.10;99.90
30206;DHT22;17010;51.306;3.150;2022-07-06T03:01:46;13.10;99.90
30206;DHT22;17010;51.306;3.150;2022-07-06T03:04:12;13.10;99.90
30206;DHT22;17010;51.306;3.150;2022-07-06T03:06:40;13.10;99.90
30206;DHT22;17010;51.306;3.150;2022-07-06T03:09:09;13.10;99.90
30206;DHT22;17010;51.306;3.150;2022-07-06T03:11:36;13.10;99.90
30206;DHT22;17010;51.306;3.150;2022-07-06T03:14:03;13.10;99.90
30206;DHT22;17010;51.306;3.150;2022-07-06T03:16:33;13.10;99.90
30206;DHT22;17010;51.306;3.150;2022-07-06T03:19:00;13.10;99.90
30206;DHT22;17010;51.306;3.150;2022-07-06T03:21:29;13.00;99.90
30206;DHT22;17010;51.306;3.150;2022-07-06T03:23:55;13.00;99.90
30206;DHT22;17010;51.306;3.150;2022-07-06T03:26:21;13.00;99.90
30206;DHT22;17010;51.306;3.150;2022-07-06T03:28:52;13.00;99.90
30206;DHT22;17010;51.306;3.150;2022-07-06T03:31:21;13.00;99.90
30206;DHT22;17010;51.306;3.150;2022-07-06T03:33:49;13.00;99.90
30206;DHT22;17010;51.306;3.150;2022-07-06T03:36:15;13.00;99.90
30206;DHT22;17010;51.306;3.150;2022-07-06T03:38:41;12.90;99.90
30206;DHT22;17010;51.306;3.150;2022-07-06T03:41:10;13.00;99.90
30206;DHT22;17010;51.306;3.150;2022-07-06T03:43:41;13.00;99.90
30206;DHT22;17010;51.306;3.150;2022-07-06T03:46:08;13.00;99.90
30206;DHT22;17010;51.306;3.150;2022-07-06T03:48:36;13.00;99.90
30206;DHT22;17010;51.306;3.150;2022-07-06T03:51:02;13.00;99.90
30206;DHT22;17010;51.306;3.150;2022-07-06T03:53:29;13.00;99.90
30206;DHT22;17010;51.306;3.150;2022-07-06T03:55:58;13.10;99.90
30206;DHT22;17010;51.306;3.150;2022-07-06T03:58:43;13.10;99.90
30206;DHT22;17010;51.306;3.150;2022-07-06T04:01:12;13.00;99.90
30206;DHT22;17010;51.306;3.150;2022-07-06T04:03:38;13.10;99.90
30206;DHT22;17010;51.306;3.150;2022-07-06T04:06:04;13.10;99.90
30206;DHT22;17010;51.306;3.150;2022-07-06T04:08:31;13.10;99.90
30206;DHT22;17010;51.306;3.150;2022-07-06T04:10:57;13.10;99.90
30206;DHT22;17010;51.306;3.150;2022-07-06T04:13:23;13.10;99.90
30206;DHT22;17010;51.306;3.150;2022-07-06T04:15:51;13.10;99.90
30206;DHT22;17010;51.306;3.150;2022-07-06T04:18:17;13.10;99.90
30206;DHT22;17010;51.306;3.150;2022-07-06T04:20:43;13.20;99.90
30206;DHT22;17010;51.306;3.150;2022-07-06T04:23:10;13.20;99.90
30206;DHT22;17010;51.306;3.150;2022-07-06T04:25:36;13.30;99.90
30206;DHT22;17010;51.306;3.150;2022-07-06T04:28:03;13.20;99.90
30206;DHT22;17010;51.306;3.150;2022-07-06T04:30:29;13.30;99.90
30206;DHT22;17010;51.306;3.150;2022-07-06T04:32:55;13.40;99.90
30206;DHT22;17010;51.306;3.150;2022-07-06T04:35:22;13.50;99.90
30206;DHT22;17010;51.306;3.150;2022-07-06T04:37:49;13.60;99.90
30206;DHT22;17010;51.306;3.150;2022-07-06T04:40:15;13.70;99.90
30206;DHT22;17010;51.306;3.150;2022-07-06T04:42:42;13.90;99.90
30206;DHT22;17010;51.306;3.150;2022-07-06T04:45:09;14.10;99.90
30206;DHT22;17010;51.306;3.150;2022-07-06T04:47:35;14.30;99.90
30206;DHT22;17010;51.306;3.150;2022-07-06T04:50:02;14.50;99.90
30206;DHT22;17010;51.306;3.150;2022-07-06T04:52:28;14.60;99.90
30206;DHT22;17010;51.306;3.150;2022-07-06T04:54:55;14.70;99.90
30206;DHT22;17010;51.306;3.150;2022-07-06T04:57:21;14.80;99.90
30206;DHT22;17010;51.306;3.150;2022-07-06T04:59:48;15.00;99.90
30206;DHT22;17010;51.306;3.150;2022-07-06T05:02:14;15.10;99.90
30206;DHT22;17010;51.306;3.150;2022-07-06T05:04:40;15.20;99.90
30206;DHT22;17010;51.306;3.150;2022-07-06T05:07:09;15.30;99.90
30206;DHT22;17010;51.306;3.150;2022-07-06T05:09:37;15.40;99.90
30206;DHT22;17010;51.306;3.150;2022-07-06T05:12:06;15.50;99.90
30206;DHT22;17010;51.306;3.150;2022-07-06T05:14:33;15.70;99.90
30206;DHT22;17010;51.306;3.150;2022-07-06T05:17:00;15.80;99.90
30206;DHT22;17010;51.306;3.150;2022-07-06T05:19:26;15.90;99.90
30206;DHT22;17010;51.306;3.150;2022-07-06T05:21:52;16.10;99.90
30206;DHT22;17010;51.306;3.150;2022-07-06T05:24:21;16.20;99.90
30206;DHT22;17010;51.306;3.150;2022-07-06T05:26:51;16.40;99.90
30206;DHT22;17010;51.306;3.150;2022-07-06T05:29:17;16.40;99.90
30206;DHT22;17010;51.306;3.150;2022-07-06T05:31:44;16.50;99.90
30206;DHT22;17010;51.306;3.150;2022-07-06T05:34:12;16.50;99.90
30206;DHT22;17010;51.306;3.150;2022-07-06T05:36:39;16.50;99.90
30206;DHT22;17010;51.306;3.150;2022-07-06T05:39:05;16.50;99.90
30206;DHT22;17010;51.306;3.150;2022-07-06T05:41:32;16.60;99.90
30206;DHT22;17010;51.306;3.150;2022-07-06T05:43:58;16.70;99.90
30206;DHT22;17010;51.306;3.150;2022-07-06T05:46:26;16.90;99.90
30206;DHT22;17010;51.306;3.150;2022-07-06T05:48:55;17.00;99.90
30206;DHT22;17010;51.306;3.150;2022-07-06T05:51:40;17.10;99.90
30206;DHT22;17010;51.306;3.150;2022-07-06T05:54:06;17.20;99.90
30206;DHT22;17010;51.306;3.150;2022-07-06T05:56:32;17.30;99.90
30206;DHT22;17010;51.306;3.150;2022-07-06T05:58:58;17.40;99.90
30206;DHT22;17010;51.306;3.150;2022-07-06T06:01:24;17.50;99.90
30206;DHT22;17010;51.306;3.150;2022-07-06T06:03:53;17.70;99.90
30206;DHT22;17010;51.306;3.150;2022-07-06T06:06:22;18.00;99.90
30206;DHT22;17010;51.306;3.150;2022-07-06T06:08:48;18.30;99.90
30206;DHT22;17010;51.306;3.150;2022-07-06T06:11:17;18.50;99.90
30206;DHT22;17010;51.306;3.150;2022-07-06T06:13:45;18.80;99.90
30206;DHT22;17010;51.306;3.150;2022-07-06T06:16:11;19.10;99.90
30206;DHT22;17010;51.306;3.150;2022-07-06T06:18:41;19.30;99.90
30206;DHT22;17010;51.306;3.150;2022-07-06T06:21:07;19.70;99.90
30206;DHT22;17010;51.306;3.150;2022-07-06T06:23:34;20.10;99.90
30206;DHT22;17010;51.306;3.150;2022-07-06T06:26:00;20.50;99.90
30206;DHT22;17010;51.306;3.150;2022-07-06T06:28:29;20.80;99.90
30206;DHT22;17010;51.306;3.150;2022-07-06T06:30:56;21.00;99.90
30206;DHT22;17010;51.306;3.150;2022-07-06T06:33:24;21.20;99.90
30206;DHT22;17010;51.306;3.150;2022-07-06T06:35:52;21.40;99.90
30206;DHT22;17010;51.306;3.150;2022-07-06T06:38:22;21.80;99.90
30206;DHT22;17010;51.306;3.150;2022-07-06T06:40:54;22.20;99.90
30206;DHT22;17010;51.306;3.150;2022-07-06T06:43:20;22.60;99.90
30206;DHT22;17010;51.306;3.150;2022-07-06T06:45:49;23.10;99.90
30206;DHT22;17010;51.306;3.150;2022-07-06T06:48:15;23.50;99.90
30206;DHT22;17010;51.306;3.150;2022-07-06T06:50:45;23.90;99.90
30206;DHT22;17010;51.306;3.150;2022-07-06T06:53:12;24.20;99.90
30206;DHT22;17010;51.306;3.150;2022-07-06T06:55:39;24.40;99.90
30206;DHT22;17010;51.306;3.150;2022-07-06T06:58:05;24.80;99.90
30206;DHT22;17010;51.306;3.150;2022-07-06T07:00:32;25.20;99.90
30206;DHT22;17010;51.306;3.150;2022-07-06T07:03:00;25.70;99.90
30206;DHT22;17010;51.306;3.150;2022-07-06T07:05:26;26.00;99.90
30206;DHT22;17010;51.306;3.150;2022-07-06T07:07:53;26.30;99.90
30206;DHT22;17010;51.306;3.150;2022-07-06T07:10:27;26.40;99.90
30206;DHT22;17010;51.306;3.150;2022-07-06T07:12:54;26.60;99.90
30206;DHT22;17010;51.306;3.150;2022-07-06T07:15:23;26.50;99.90
30206;DHT22;17010;51.306;3.150;2022-07-06T07:17:49;26.50;99.90
30206;DHT22;17010;51.306;3.150;2022-07-06T07:20:15;26.20;99.90
30206;DHT22;17010;51.306;3.150;2022-07-06T07:22:41;26.10;99.90
30206;DHT22;17010;51.306;3.150;2022-07-06T07:25:08;26.30;99.90
30206;DHT22;17010;51.306;3.150;2022-07-06T07:27:35;26.70;99.90
30206;DHT22;17010;51.306;3.150;2022-07-06T07:30:05;26.90;99.90
30206;DHT22;17010;51.306;3.150;2022-07-06T07:32:35;26.90;99.90
30206;DHT22;17010;51.306;3.150;2022-07-06T07:35:06;27.00;99.90
30206;DHT22;17010;51.306;3.150;2022-07-06T07:37:32;27.40;99.90
30206;DHT22;17010;51.306;3.150;2022-07-06T07:39:59;27.70;99.90
30206;DHT22;17010;51.306;3.150;2022-07-06T07:42:26;28.10;99.90
30206;DHT22;17010;51.306;3.150;2022-07-06T07:44:52;28.10;99.90
30206;DHT22;17010;51.306;3.150;2022-07-06T07:47:20;28.20;99.90
30206;DHT22;17010;51.306;3.150;2022-07-06T07:49:49;28.30;99.90
30206;DHT22;17010;51.306;3.150;2022-07-06T07:52:18;28.60;99.90
30206;DHT22;17010;51.306;3.150;2022-07-06T07:54:46;29.30;99.90
30206;DHT22;17010;51.306;3.150;2022-07-06T07:57:13;29.70;99.90
30206;DHT22;17010;51.306;3.150;2022-07-06T07:59:39;30.00;99.90
30206;DHT22;17010;51.306;3.150;2022-07-06T08:02:08;30.40;99.10
30206;DHT22;17010;51.306;3.150;2022-07-06T08:04:34;29.90;98.80
30206;DHT22;17010;51.306;3.150;2022-07-06T08:07:00;29.20;98.60
30206;DHT22;17010;51.306;3.150;2022-07-06T08:09:29;28.40;99.10
30206;DHT22;17010;51.306;3.150;2022-07-06T08:11:56;27.50;99.90
30206;DHT22;17010;51.306;3.150;2022-07-06T08:14:24;26.80;99.90
30206;DHT22;17010;51.306;3.150;2022-07-06T08:16:51;25.90;99.90
30206;DHT22;17010;51.306;3.150;2022-07-06T08:19:22;25.20;99.90
30206;DHT22;17010;51.306;3.150;2022-07-06T08:21:48;24.70;99.90
30206;DHT22;17010;51.306;3.150;2022-07-06T08:24:17;24.30;99.90
30206;DHT22;17010;51.306;3.150;2022-07-06T08:26:43;24.10;99.90
30206;DHT22;17010;51.306;3.150;2022-07-06T08:29:09;24.20;99.90
30206;DHT22;17010;51.306;3.150;2022-07-06T08:31:36;24.90;99.90
30206;DHT22;17010;51.306;3.150;2022-07-06T08:34:05;25.90;99.90
30206;DHT22;17010;51.306;3.150;2022-07-06T08:36:31;26.70;99.90
30206;DHT22;17010;51.306;3.150;2022-07-06T08:38:58;27.00;99.90
30206;DHT22;17010;51.306;3.150;2022-07-06T08:41:26;26.90;99.90
30206;DHT22;17010;51.306;3.150;2022-07-06T08:43:54;26.80;99.90
30206;DHT22;17010;51.306;3.150;2022-07-06T08:46:21;26.60;99.90
30206;DHT22;17010;51.306;3.150;2022-07-06T08:48:50;26.30;99.90
30206;DHT22;17010;51.306;3.150;2022-07-06T08:51:19;26.20;99.90
30206;DHT22;17010;51.306;3.150;2022-07-06T08:53:48;26.20;99.90
30206;DHT22;17010;51.306;3.150;2022-07-06T08:56:18;26.20;99.90
30206;DHT22;17010;51.306;3.150;2022-07-06T08:58:45;26.30;99.90
30206;DHT22;17010;51.306;3.150;2022-07-06T09:01:13;26.40;99.90
30206;DHT22;17010;51.306;3.150;2022-07-06T09:03:46;26.20;99.90
30206;DHT22;17010;51.306;3.150;2022-07-06T09:06:26;26.30;99.90
30206;DHT22;17010;51.306;3.150;2022-07-06T09:08:55;26.50;99.90
30206;DHT22;17010;51.306;3.150;2022-07-06T09:11:25;26.60;99.90
30206;DHT22;17010;51.306;3.150;2022-07-06T09:13:59;26.80;99.90
30206;DHT22;17010;51.306;3.150;2022-07-06T09:16:29;26.90;99.90
30206;DHT22;17010;51.306;3.150;2022-07-06T09:18:56;26.90;99.90
30206;DHT22;17010;51.306;3.150;2022-07-06T09:21:32;26.80;99.90
30206;DHT22;17010;51.306;3.150;2022-07-06T09:24:07;26.70;99.90
30206;DHT22;17010;51.306;3.150;2022-07-06T09:26:34;26.60;99.90
30206;DHT22;17010;51.306;3.150;2022-07-06T09:29:00;26.70;99.90
30206;DHT22;17010;51.306;3.150;2022-07-06T09:31:27;26.90;99.90
30206;DHT22;17010;51.306;3.150;2022-07-06T09:34:06;27.10;99.90
30206;DHT22;17010;51.306;3.150;2022-07-06T09:36:38;27.40;99.90
30206;DHT22;17010;51.306;3.150;2022-07-06T09:39:14;28.10;99.90
30206;DHT22;17010;51.306;3.150;2022-07-06T09:41:43;28.60;99.90
30206;DHT22;17010;51.306;3.150;2022-07-06T09:44:14;29.10;99.90
30206;DHT22;17010;51.306;3.150;2022-07-06T09:46:46;30.00;99.90
30206;DHT22;17010;51.306;3.150;2022-07-06T09:49:16;31.10;99.90
30206;DHT22;17010;51.306;3.150;2022-07-06T09:51:42;32.20;97.80
30206;DHT22;17010;51.306;3.150;2022-07-06T09:54:12;32.80;95.30
30206;DHT22;17010;51.306;3.150;2022-07-06T09:56:40;32.60;95.00
30206;DHT22;17010;51.306;3.150;2022-07-06T09:59:11;32.40;95.50
30206;DHT22;17010;51.306;3.150;2022-07-06T10:01:38;33.00;96.50
30206;DHT22;17010;51.306;3.150;2022-07-06T10:04:08;33.60;93.50
30206;DHT22;17010;51.306;3.150;2022-07-06T10:06:35;34.00;94.40
30206;DHT22;17010;51.306;3.150;2022-07-06T10:09:05;34.30;93.00
30206;DHT22;17010;51.306;3.150;2022-07-06T10:11:37;34.60;92.10
30206;DHT22;17010;51.306;3.150;2022-07-06T10:14:04;34.80;91.60
30206;DHT22;17010;51.306;3.150;2022-07-06T10:16:31;34.80;91.10
30206;DHT22;17010;51.306;3.150;2022-07-06T10:18:57;34.10;89.30
30206;DHT22;17010;51.306;3.150;2022-07-06T10:21:24;33.20;91.20
30206;DHT22;17010;51.306;3.150;2022-07-06T10:23:53;32.90;91.80
30206;DHT22;17010;51.306;3.150;2022-07-06T10:26:19;33.50;92.30
30206;DHT22;17010;51.306;3.150;2022-07-06T10:28:47;34.20;92.10
30206;DHT22;17010;51.306;3.150;2022-07-06T10:31:17;34.40;91.60
30206;DHT22;17010;51.306;3.150;2022-07-06T10:33:43;34.10;91.00
30206;DHT22;17010;51.306;3.150;2022-07-06T10:36:13;34.00;91.10
30206;DHT22;17010;51.306;3.150;2022-07-06T10:38:41;33.20;91.20
30206;DHT22;17010;51.306;3.150;2022-07-06T10:41:15;33.20;92.40
30206;DHT22;17010;51.306;3.150;2022-07-06T10:43:45;33.80;92.80
30206;DHT22;17010;51.306;3.150;2022-07-06T10:46:15;34.30;92.60
30206;DHT22;17010;51.306;3.150;2022-07-06T10:48:46;35.40;92.50
30206;DHT22;17010;51.306;3.150;2022-07-06T10:51:23;35.80;90.80
30206;DHT22;17010;51.306;3.150;2022-07-06T10:53:56;36.30;91.00
30206;DHT22;17010;51.306;3.150;2022-07-06T10:56:48;36.70;88.20
30206;DHT22;17010;51.306;3.150;2022-07-06T10:59:16;36.80;88.20
30206;DHT22;17010;51.306;3.150;2022-07-06T11:04:39;37.70;87.10
30206;DHT22;17010;51.306;3.150;2022-07-06T11:07:26;37.80;86.00
30206;DHT22;17010;51.306;3.150;2022-07-06T11:09:57;37.90;86.60
30206;DHT22;17010;51.306;3.150;2022-07-06T11:12:23;37.70;87.00
30206;DHT22;17010;51.306;3.150;2022-07-06T11:14:50;37.70;86.90
30206;DHT22;17010;51.306;3.150;2022-07-06T11:17:20;37.00;86.70
30206;DHT22;17010;51.306;3.150;2022-07-06T11:19:57;36.60;87.10
30206;DHT22;17010;51.306;3.150;2022-07-06T11:22:24;35.80;87.30
30206;DHT22;17010;51.306;3.150;2022-07-06T11:24:52;35.00;89.50
30206;DHT22;17010;51.306;3.150;2022-07-06T11:27:26;34.50;89.70
30206;DHT22;17010;51.306;3.150;2022-07-06T11:29:53;34.20;89.80
30206;DHT22;17010;51.306;3.150;2022-07-06T11:32:24;34.20;90.20
30206;DHT22;17010;51.306;3.150;2022-07-06T11:34:50;34.30;89.30
30206;DHT22;17010;51.306;3.150;2022-07-06T11:37:17;33.80;90.20
30206;DHT22;17010;51.306;3.150;2022-07-06T11:39:45;33.70;90.50
30206;DHT22;17010;51.306;3.150;2022-07-06T11:42:15;33.80;90.40
30206;DHT22;17010;51.306;3.150;2022-07-06T11:44:44;33.90;90.60
30206;DHT22;17010;51.306;3.150;2022-07-06T11:47:13;33.10;89.50
30206;DHT22;17010;51.306;3.150;2022-07-06T11:49:41;32.50;90.40
30206;DHT22;17010;51.306;3.150;2022-07-06T11:52:15;32.10;90.80
30206;DHT22;17010;51.306;3.150;2022-07-06T11:54:42;32.00;90.90
30206;DHT22;17010;51.306;3.150;2022-07-06T11:57:10;31.90;90.90
30206;DHT22;17010;51.306;3.150;2022-07-06T11:59:39;31.70;91.10
30206;DHT22;17010;51.306;3.150;2022-07-06T12:02:12;31.70;91.10
30206;DHT22;17010;51.306;3.150;2022-07-06T12:04:43;31.30;91.30
30206;DHT22;17010;51.306;3.150;2022-07-06T12:07:15;31.30;91.60
30206;DHT22;17010;51.306;3.150;2022-07-06T12:09:46;31.60;91.90
30206;DHT22;17010;51.306;3.150;2022-07-06T12:12:15;31.40;91.60
30206;DHT22;17010;51.306;3.150;2022-07-06T12:14:43;31.10;92.70
30206;DHT22;17010;51.306;3.150;2022-07-06T12:17:13;31.00;92.50
30206;DHT22;17010;51.306;3.150;2022-07-06T12:19:43;30.90;92.50
30206;DHT22;17010;51.306;3.150;2022-07-06T12:22:10;31.00;91.60
30206;DHT22;17010;51.306;3.150;2022-07-06T12:24:43;31.50;92.80
30206;DHT22;17010;51.306;3.150;2022-07-06T12:27:17;31.40;92.90
30206;DHT22;17010;51.306;3.150;2022-07-06T12:29:45;31.30;92.40
30206;DHT22;17010;51.306;3.150;2022-07-06T12:32:18;30.80;92.70
30206;DHT22;17010;51.306;3.150;2022-07-06T12:34:47;30.90;93.30
30206;DHT22;17010;51.306;3.150;2022-07-06T12:37:27;30.90;93.40
30206;DHT22;17010;51.306;3.150;2022-07-06T12:39:57;31.00;93.70
30206;DHT22;17010;51.306;3.150;2022-07-06T12:42:26;31.60;93.30
30206;DHT22;17010;51.306;3.150;2022-07-06T12:44:54;31.50;93.50
30206;DHT22;17010;51.306;3.150;2022-07-06T12:47:26;31.30;93.90
30206;DHT22;17010;51.306;3.150;2022-07-06T12:50:09;30.60;94.80
30206;DHT22;17010;51.306;3.150;2022-07-06T12:52:38;30.20;94.90
30206;DHT22;17010;51.306;3.150;2022-07-06T12:55:06;30.00;95.30
30206;DHT22;17010;51.306;3.150;2022-07-06T12:57:48;29.90;96.00
30206;DHT22;17010;51.306;3.150;2022-07-06T13:00:20;30.70;96.10
30206;DHT22;17010;51.306;3.150;2022-07-06T13:02:49;30.50;95.10
30206;DHT22;17010;51.306;3.150;2022-07-06T13:05:26;30.40;95.20
30206;DHT22;17010;51.306;3.150;2022-07-06T13:07:59;30.10;95.40
30206;DHT22;17010;51.306;3.150;2022-07-06T13:10:27;30.10;95.60
30206;DHT22;17010;51.306;3.150;2022-07-06T13:12:56;30.60;95.60
30206;DHT22;17010;51.306;3.150;2022-07-06T13:15:23;30.30;95.40
30206;DHT22;17010;51.306;3.150;2022-07-06T13:17:52;30.10;95.30
30206;DHT22;17010;51.306;3.150;2022-07-06T13:20:21;29.90;95.20
30206;DHT22;17010;51.306;3.150;2022-07-06T13:22:49;30.10;95.30
30206;DHT22;17010;51.306;3.150;2022-07-06T13:25:17;29.80;95.00
30206;DHT22;17010;51.306;3.150;2022-07-06T13:27:43;29.90;94.70
30206;DHT22;17010;51.306;3.150;2022-07-06T13:30:12;29.70;94.90
30206;DHT22;17010;51.306;3.150;2022-07-06T13:32:41;28.80;94.30
30206;DHT22;17010;51.306;3.150;2022-07-06T13:35:10;28.10;95.80
30206;DHT22;17010;51.306;3.150;2022-07-06T13:37:37;27.90;97.00
30206;DHT22;17010;51.306;3.150;2022-07-06T13:40:06;27.60;95.70
30206;DHT22;17010;51.306;3.150;2022-07-06T13:42:32;27.70;97.00
30206;DHT22;17010;51.306;3.150;2022-07-06T13:44:59;27.50;95.70
30206;DHT22;17010;51.306;3.150;2022-07-06T13:47:30;27.00;96.60
30206;DHT22;17010;51.306;3.150;2022-07-06T13:50:01;27.00;97.60
30206;DHT22;17010;51.306;3.150;2022-07-06T13:52:28;27.00;97.70
30206;DHT22;17010;51.306;3.150;2022-07-06T13:54:54;27.20;97.20
30206;DHT22;17010;51.306;3.150;2022-07-06T13:57:21;26.90;96.60
30206;DHT22;17010;51.306;3.150;2022-07-06T13:59:47;26.60;96.80
30206;DHT22;17010;51.306;3.150;2022-07-06T14:02:14;26.20;97.00
30206;DHT22;17010;51.306;3.150;2022-07-06T14:04:40;25.80;98.10
30206;DHT22;17010;51.306;3.150;2022-07-06T14:07:06;25.60;98.80
30206;DHT22;17010;51.306;3.150;2022-07-06T14:09:38;25.80;99.60
30206;DHT22;17010;51.306;3.150;2022-07-06T14:12:06;25.90;99.80
30206;DHT22;17010;51.306;3.150;2022-07-06T14:14:35;26.10;99.90
30206;DHT22;17010;51.306;3.150;2022-07-06T14:17:01;26.20;99.90
30206;DHT22;17010;51.306;3.150;2022-07-06T14:19:32;26.40;99.90
30206;DHT22;17010;51.306;3.150;2022-07-06T14:21:58;26.40;99.90
30206;DHT22;17010;51.306;3.150;2022-07-06T14:24:24;26.40;99.90
30206;DHT22;17010;51.306;3.150;2022-07-06T14:26:53;26.40;99.90
30206;DHT22;17010;51.306;3.150;2022-07-06T14:29:24;26.60;99.90
30206;DHT22;17010;51.306;3.150;2022-07-06T14:31:56;26.50;99.90
30206;DHT22;17010;51.306;3.150;2022-07-06T14:34:25;26.30;99.90
30206;DHT22;17010;51.306;3.150;2022-07-06T14:36:51;26.10;99.90
30206;DHT22;17010;51.306;3.150;2022-07-06T14:39:21;26.10;99.90
30206;DHT22;17010;51.306;3.150;2022-07-06T14:41:49;26.10;99.90
30206;DHT22;17010;51.306;3.150;2022-07-06T14:44:18;26.00;99.90
30206;DHT22;17010;51.306;3.150;2022-07-06T14:46:46;25.80;99.90
30206;DHT22;17010;51.306;3.150;2022-07-06T14:49:12;25.60;99.90
30206;DHT22;17010;51.306;3.150;2022-07-06T14:51:39;25.20;99.90
30206;DHT22;17010;51.306;3.150;2022-07-06T14:54:06;24.80;99.90
30206;DHT22;17010;51.306;3.150;2022-07-06T14:56:35;24.80;99.90
30206;DHT22;17010;51.306;3.150;2022-07-06T14:59:02;24.90;99.90
30206;DHT22;17010;51.306;3.150;2022-07-06T15:01:28;24.90;99.90
30206;DHT22;17010;51.306;3.150;2022-07-06T15:03:58;25.00;99.90
30206;DHT22;17010;51.306;3.150;2022-07-06T15:06:27;24.80;99.90
30206;DHT22;17010;51.306;3.150;2022-07-06T15:08:55;24.50;99.90
30206;DHT22;17010;51.306;3.150;2022-07-06T15:11:22;24.20;99.90
30206;DHT22;17010;51.306;3.150;2022-07-06T15:13:52;24.10;99.90
30206;DHT22;17010;51.306;3.150;2022-07-06T15:16:21;24.00;99.90
30206;DHT22;17010;51.306;3.150;2022-07-06T15:18:47;23.90;99.90
30206;DHT22;17010;51.306;3.150;2022-07-06T15:21:13;23.80;99.90
30206;DHT22;17010;51.306;3.150;2022-07-06T15:23:43;23.90;99.90
30206;DHT22;17010;51.306;3.150;2022-07-06T15:26:11;24.00;99.90
30206;DHT22;17010;51.306;3.150;2022-07-06T15:28:37;24.10;99.90
30206;DHT22;17010;51.306;3.150;2022-07-06T15:31:06;24.10;99.90
30206;DHT22;17010;51.306;3.150;2022-07-06T15:33:35;24.00;99.90
30206;DHT22;17010;51.306;3.150;2022-07-06T15:36:01;24.20;99.90
30206;DHT22;17010;51.306;3.150;2022-07-06T15:38:31;24.20;99.90
30206;DHT22;17010;51.306;3.150;2022-07-06T15:41:01;24.20;99.90